DNMM/LOS METAR and TAF weather

Enter ICAO airport designator
Station Type Date Time Source
DNMM METAR 2018/10/21 06:00 UTC NOAA

DNMM 210600Z VRB02KT 8000 SCT009 25/24 Q1011 TEMPO 5000 -DZ


Station Type Date Time Source
DNMM Decoded METAR 2018/10/21 06:00 UTC NOAA

Lagos / Ikeja, Nigeria (DNMM) 06-35N 003-20E 38M
Oct 21, 2018 - 02:00 AM EDT / 2018.10.21 0600 UTC
Wind: Variable at 2 MPH (2 KT):0
Visibility: 4 mile(s):0
Sky conditions: partly cloudy
Temperature: 77 F (25 C)
Dew Point: 75 F (24 C)
Relative Humidity: 94%
Pressure (altimeter): 29.85 in. Hg (1011 hPa)
ob: DNMM 210600Z VRB02KT 8000 SCT009 25/24 Q1011 TEMPO 5000 -DZ
cycle: 6

Station Type Date Time Source
DNMM TAF 2018/10/20 18:21 UTC NOAA

TAF DNMM 201550Z 2018/2124 VRB02KT 9999 FEW011 PROB30
TEMPO 2018/2022 TS BKN011 FEW019CB
TEMPO 2105/2107 5000 BR BECNG 2108/2110 23010KT BKN013


Example: see airport list